createdAt,value
2018-12-01T00:01:14.843Z,31.60
2018-12-01T00:03:49.906Z,27.40
2018-12-01T00:06:24.373Z,26.80
2018-12-01T00:09:00.090Z,29.17
2018-12-01T00:11:35.358Z,28.23
2018-12-01T00:14:10.731Z,27.40
2018-12-01T00:16:45.161Z,25.77
2018-12-01T00:19:25.651Z,27.13
2018-12-01T00:22:00.965Z,27.30
2018-12-01T00:24:35.505Z,31.03
2018-12-01T00:27:10.523Z,27.73
2018-12-01T00:29:46.203Z,28.93
2018-12-01T00:32:20.582Z,28.53
2018-12-01T00:34:55.122Z,30.77
2018-12-01T00:37:29.494Z,27.27
2018-12-01T00:40:05.540Z,32.40
2018-12-01T00:42:40.544Z,32.10
2018-12-01T00:45:17.822Z,27.63
2018-12-01T00:47:53.546Z,29.83
2018-12-01T00:50:28.073Z,33.10
2018-12-01T00:53:03.110Z,37.30
2018-12-01T00:55:38.249Z,27.13
2018-12-01T00:58:12.532Z,37.57
2018-12-01T01:00:53.587Z,33.10
2018-12-01T01:03:29.054Z,30.30
2018-12-01T01:06:03.371Z,34.10
2018-12-01T01:08:38.497Z,38.57
2018-12-01T01:11:20.221Z,31.50
2018-12-01T01:13:55.413Z,30.33
2018-12-01T01:16:29.853Z,31.70
2018-12-01T01:19:10.574Z,28.33
2018-12-01T01:21:45.009Z,30.50
2018-12-01T01:24:19.520Z,30.00
2018-12-01T01:26:54.563Z,30.13
2018-12-01T01:29:30.364Z,37.60
2018-12-01T01:32:05.209Z,33.80
2018-12-01T01:34:39.677Z,34.70
2018-12-01T01:37:14.242Z,36.77
2018-12-01T01:39:49.153Z,32.70
2018-12-01T01:42:24.119Z,31.40
2018-12-01T01:44:58.752Z,38.03
2018-12-01T01:47:33.908Z,29.90
2018-12-01T01:50:10.592Z,32.53
2018-12-01T01:52:45.659Z,35.17
2018-12-01T01:55:20.798Z,26.93
2018-12-01T01:58:03.634Z,31.03
2018-12-01T02:00:42.574Z,34.63
2018-12-01T02:03:18.291Z,32.63
2018-12-01T02:05:52.762Z,33.37
2018-12-01T02:08:28.116Z,37.80
2018-12-01T02:11:02.774Z,31.20
2018-12-01T02:13:38.066Z,32.83
2018-12-01T02:16:12.796Z,27.60
2018-12-01T02:21:28.570Z,28.13
2018-12-01T02:24:02.979Z,41.63
2018-12-01T02:26:38.161Z,35.27
2018-12-01T02:29:21.166Z,39.53
2018-12-01T02:31:55.727Z,37.83
2018-12-01T02:34:30.193Z,32.03
2018-12-01T02:37:04.938Z,41.77
2018-12-01T02:39:39.457Z,27.53
2018-12-01T02:42:14.650Z,34.47
2018-12-01T02:45:01.283Z,35.37
2018-12-01T02:47:36.164Z,39.10
2018-12-01T02:50:14.239Z,31.30
2018-12-01T02:52:49.289Z,33.33
2018-12-01T02:55:24.429Z,33.30
2018-12-01T02:57:59.433Z,34.60
2018-12-01T03:00:41.683Z,33.33
2018-12-01T03:03:17.198Z,27.73
2018-12-01T03:05:51.529Z,36.50
2018-12-01T03:08:26.785Z,32.57
2018-12-01T03:11:01.302Z,37.20
2018-12-01T03:13:36.352Z,32.93
2018-12-01T03:16:10.830Z,33.50
2018-12-01T03:19:02.199Z,39.43
2018-12-01T03:21:36.669Z,36.47
2018-12-01T03:24:11.203Z,28.50
2018-12-01T03:26:46.195Z,30.73
2018-12-01T03:29:20.537Z,31.70
2018-12-01T03:31:54.900Z,30.27
2018-12-01T03:34:29.277Z,30.07
2018-12-01T03:37:04.286Z,28.50
2018-12-01T03:39:38.803Z,30.83
2018-12-01T03:42:13.961Z,30.43
2018-12-01T03:44:49.266Z,31.30
2018-12-01T03:47:24.379Z,32.73
2018-12-01T03:49:58.943Z,29.87
2018-12-01T03:52:34.043Z,33.47
2018-12-01T03:55:31.350Z,34.37
2018-12-01T03:58:05.779Z,23.10
2018-12-01T04:00:47.082Z,26.27
2018-12-01T04:03:22.437Z,36.33
2018-12-01T04:05:57.023Z,27.00
2018-12-01T04:08:32.802Z,23.07
2018-12-01T04:11:07.250Z,28.70
2018-12-01T04:13:42.223Z,28.00
2018-12-01T04:16:16.824Z,25.37
2018-12-01T04:18:58.804Z,31.30
2018-12-01T04:21:33.301Z,28.07
2018-12-01T04:24:07.702Z,27.50
2018-12-01T04:26:42.493Z,22.93
2018-12-01T04:29:16.942Z,29.50
2018-12-01T04:31:51.345Z,29.53
2018-12-01T04:34:26.271Z,33.63
2018-12-01T04:37:01.512Z,28.07
2018-12-01T04:39:35.977Z,28.00
2018-12-01T04:42:10.917Z,25.80
2018-12-01T04:44:45.387Z,30.00
2018-12-01T04:47:21.079Z,31.87
2018-12-01T04:49:55.637Z,29.70
2018-12-01T04:52:30.796Z,24.93
2018-12-01T04:55:08.644Z,28.10
2018-12-01T04:57:43.024Z,26.23
2018-12-01T05:00:18.318Z,32.67
2018-12-01T05:02:53.214Z,28.77
2018-12-01T05:05:28.321Z,27.87
2018-12-01T05:08:03.399Z,37.17
2018-12-01T05:10:38.451Z,24.70
2018-12-01T05:13:13.536Z,27.77
2018-12-01T05:15:47.985Z,25.90
2018-12-01T05:18:23.196Z,30.93
2018-12-01T05:20:58.231Z,34.93
2018-12-01T05:23:33.418Z,30.20
2018-12-01T05:26:08.348Z,30.47
2018-12-01T05:28:42.834Z,32.83
2018-12-01T05:31:17.282Z,33.20
2018-12-01T05:33:52.281Z,32.43
2018-12-01T05:36:26.801Z,28.70
2018-12-01T05:39:01.229Z,25.50
2018-12-01T05:41:36.235Z,29.60
2018-12-01T05:44:11.254Z,32.13
2018-12-01T05:46:46.894Z,31.17
2018-12-01T05:49:22.217Z,32.67
2018-12-01T05:51:56.515Z,29.70
2018-12-01T05:54:40.765Z,29.97
2018-12-01T05:57:15.321Z,40.07
2018-12-01T05:59:49.701Z,31.77
2018-12-01T06:02:25.041Z,33.87
2018-12-01T06:05:00.130Z,34.57
2018-12-01T06:07:35.079Z,32.33
2018-12-01T06:10:18.182Z,32.97
2018-12-01T06:12:53.347Z,32.90
2018-12-01T06:15:28.397Z,29.27
2018-12-01T06:18:03.858Z,25.67
2018-12-01T06:20:38.879Z,27.33
2018-12-01T06:23:13.866Z,31.80
2018-12-01T06:25:48.982Z,33.93
2018-12-01T06:28:23.491Z,30.03
2018-12-01T06:30:57.830Z,31.63
2018-12-01T06:33:32.227Z,33.30
2018-12-01T06:36:06.708Z,25.30
2018-12-01T06:38:41.302Z,32.30
2018-12-01T06:41:16.742Z,25.87
2018-12-01T06:43:51.171Z,31.90
2018-12-01T06:46:26.386Z,40.57
2018-12-01T06:49:00.716Z,33.77
2018-12-01T06:51:36.270Z,29.97
2018-12-01T06:54:09.694Z,26.40
2018-12-01T06:56:45.206Z,27.63
2018-12-01T06:59:20.450Z,27.90
2018-12-01T07:01:56.590Z,27.70
2018-12-01T07:04:31.876Z,25.43
2018-12-01T07:07:07.082Z,27.17
2018-12-01T07:09:42.365Z,27.27
2018-12-01T07:12:16.882Z,31.17
2018-12-01T07:14:51.982Z,32.23
2018-12-01T07:17:26.985Z,34.37
2018-12-01T07:20:02.507Z,35.10
2018-12-01T07:22:36.913Z,28.90
2018-12-01T07:25:12.285Z,32.50
2018-12-01T07:27:47.446Z,28.47
2018-12-01T07:30:21.913Z,26.20
2018-12-01T07:32:56.313Z,27.07
2018-12-01T07:35:30.690Z,20.63
2018-12-01T07:38:05.891Z,29.63
2018-12-01T07:40:41.534Z,30.43
2018-12-01T07:43:16.071Z,32.90
2018-12-01T07:45:51.293Z,28.27
2018-12-01T07:48:26.827Z,29.87
2018-12-01T07:51:01.335Z,30.27
2018-12-01T07:53:36.893Z,30.03
2018-12-01T07:56:12.797Z,26.57
2018-12-01T07:58:47.182Z,25.20
2018-12-01T08:01:21.771Z,27.50
2018-12-01T08:03:57.294Z,24.07
2018-12-01T08:06:41.199Z,24.40
2018-12-01T08:09:16.791Z,24.63
2018-12-01T08:13:15.842Z,24.87
2018-12-01T08:15:51.002Z,27.73
2018-12-01T08:18:26.553Z,32.50
2018-12-01T08:21:01.689Z,26.53
2018-12-01T08:23:36.185Z,29.73
2018-12-01T08:26:11.634Z,32.93
2018-12-01T08:28:46.038Z,29.20
2018-12-01T08:31:20.654Z,33.80
2018-12-01T08:33:54.993Z,29.00
2018-12-01T08:36:30.202Z,29.10
2018-12-01T08:39:08.364Z,26.43
2018-12-01T08:41:44.435Z,23.33
2018-12-01T08:44:18.941Z,32.17
2018-12-01T08:46:54.765Z,22.20
2018-12-01T08:49:29.218Z,23.33
2018-12-01T08:52:03.878Z,26.00
2018-12-01T08:54:38.241Z,32.80
2018-12-01T08:57:18.929Z,26.20
2018-12-01T08:59:53.461Z,23.67
2018-12-01T09:02:28.291Z,30.60
2018-12-01T09:05:03.227Z,27.43
2018-12-01T09:07:38.517Z,25.87
2018-12-01T09:10:13.726Z,22.30
2018-12-01T09:12:48.108Z,28.40
2018-12-01T09:15:23.175Z,23.17
2018-12-01T09:18:06.197Z,23.77
2018-12-01T09:20:41.927Z,28.67
2018-12-01T09:23:16.337Z,21.47
2018-12-01T09:25:51.822Z,25.60
2018-12-01T09:28:27.136Z,23.33
2018-12-01T09:31:01.655Z,24.70
2018-12-01T09:33:36.951Z,25.23
2018-12-01T09:36:11.398Z,23.03
2018-12-01T09:38:46.674Z,22.43
2018-12-01T09:41:22.033Z,28.40
2018-12-01T09:43:56.514Z,21.90
2018-12-01T09:46:31.625Z,27.17
2018-12-01T09:49:06.193Z,24.23
2018-12-01T09:51:40.618Z,20.50
2018-12-01T09:54:15.283Z,21.37
2018-12-01T09:56:50.328Z,22.07
2018-12-01T09:59:24.880Z,20.33
2018-12-01T10:02:00.094Z,16.07
2018-12-01T10:04:35.521Z,19.53
2018-12-01T10:07:10.730Z,17.97
2018-12-01T10:09:47.030Z,17.07
2018-12-01T10:12:21.657Z,18.70
2018-12-01T10:14:57.111Z,21.77
2018-12-01T10:17:32.370Z,17.57
2018-12-01T10:20:11.914Z,20.20
2018-12-01T10:22:46.343Z,18.27
2018-12-01T10:25:21.964Z,17.77
2018-12-01T10:27:56.346Z,20.80
2018-12-01T10:30:30.709Z,19.03
2018-12-01T10:33:05.689Z,13.47
2018-12-01T10:35:40.184Z,17.97
2018-12-01T10:38:16.626Z,15.57
2018-12-01T10:40:51.950Z,31.13
2018-12-01T10:43:27.316Z,20.17
2018-12-01T10:46:03.064Z,21.17
2018-12-01T10:48:38.647Z,19.27
2018-12-01T10:51:13.392Z,18.70
2018-12-01T10:53:47.973Z,12.10
2018-12-01T10:56:23.228Z,14.73
2018-12-01T10:58:57.685Z,17.17
2018-12-01T11:01:33.613Z,12.60
2018-12-01T11:04:13.962Z,9.50
2018-12-01T11:06:49.078Z,10.50
2018-12-01T11:09:23.949Z,11.60
2018-12-01T11:11:58.422Z,9.63
2018-12-01T11:14:32.783Z,10.03
2018-12-01T11:17:08.618Z,10.93
2018-12-01T11:19:44.029Z,8.90
2018-12-01T11:22:18.397Z,8.83
2018-12-01T11:24:53.094Z,6.70
2018-12-01T11:27:29.028Z,9.30
2018-12-01T11:30:04.604Z,7.67
2018-12-01T11:32:39.160Z,6.87
2018-12-01T11:35:14.457Z,8.00
2018-12-01T11:37:49.074Z,5.30
2018-12-01T11:40:30.370Z,6.70
2018-12-01T11:43:05.333Z,9.70
2018-12-01T11:45:40.662Z,12.53
2018-12-01T11:48:16.039Z,7.53
2018-12-01T11:50:51.444Z,5.50
2018-12-01T11:53:26.534Z,7.33
2018-12-01T11:56:02.128Z,6.60
2018-12-01T11:58:36.749Z,9.53
2018-12-01T12:01:11.226Z,5.63
2018-12-01T12:03:46.433Z,4.77
2018-12-01T12:06:20.962Z,5.33
2018-12-01T12:08:55.782Z,6.07
2018-12-01T12:11:30.150Z,5.60
2018-12-01T12:14:04.679Z,4.37
2018-12-01T12:16:40.862Z,4.00
2018-12-01T12:19:16.602Z,5.60
2018-12-01T12:21:52.617Z,4.73
2018-12-01T12:24:27.226Z,8.67
2018-12-01T12:27:02.562Z,9.17
2018-12-01T12:29:36.933Z,3.87
2018-12-01T12:32:11.723Z,3.10
2018-12-01T12:34:46.966Z,4.47
2018-12-01T12:37:22.152Z,10.20
2018-12-01T12:39:56.502Z,8.83
2018-12-01T12:42:31.354Z,4.57
2018-12-01T12:45:09.342Z,5.77
2018-12-01T12:47:44.186Z,4.07
2018-12-01T12:50:20.018Z,3.20
2018-12-01T12:52:56.471Z,3.17
2018-12-01T12:55:31.732Z,2.80
2018-12-01T12:58:08.201Z,3.43
2018-12-01T13:00:46.798Z,3.33
2018-12-01T13:03:24.274Z,8.43
2018-12-01T13:05:58.689Z,6.77
2018-12-01T13:08:33.995Z,5.93
2018-12-01T13:11:08.395Z,5.00
2018-12-01T13:13:43.205Z,4.70
2018-12-01T13:16:35.405Z,5.00
2018-12-01T13:19:11.641Z,4.90
2018-12-01T13:21:46.165Z,5.97
2018-12-01T13:24:21.375Z,5.20
2018-12-01T13:26:57.084Z,3.20
2018-12-01T13:29:32.682Z,3.10
2018-12-01T13:32:07.945Z,4.23
2018-12-01T13:34:43.292Z,5.97
2018-12-01T13:37:18.234Z,3.67
2018-12-01T13:39:52.990Z,4.30
2018-12-01T13:42:28.350Z,3.57
2018-12-01T13:45:02.878Z,5.83
2018-12-01T13:47:38.205Z,5.73
2018-12-01T13:50:16.342Z,7.80
2018-12-01T13:52:56.033Z,9.27
2018-12-01T13:55:32.030Z,4.80
2018-12-01T13:58:06.593Z,4.63
2018-12-01T14:00:47.174Z,4.13
2018-12-01T14:03:23.122Z,5.33
2018-12-01T14:05:57.481Z,3.47
2018-12-01T14:08:38.549Z,4.97
2018-12-01T14:11:12.868Z,8.47
2018-12-01T14:13:47.639Z,4.73
2018-12-01T14:16:30.988Z,5.57
2018-12-01T14:19:06.627Z,5.33
2018-12-01T14:21:41.063Z,4.53
2018-12-01T14:24:15.886Z,5.70
2018-12-01T14:26:51.179Z,8.03
2018-12-01T14:29:25.615Z,14.03
2018-12-01T14:32:00.002Z,10.93
2018-12-01T14:34:34.639Z,4.77
2018-12-01T14:37:09.129Z,3.93
2018-12-01T14:39:44.039Z,4.73
2018-12-01T14:42:19.498Z,5.83
2018-12-01T14:44:53.906Z,5.67
2018-12-01T14:47:29.158Z,6.60
2018-12-01T14:50:06.740Z,5.67
2018-12-01T14:52:41.618Z,6.90
2018-12-01T14:55:17.794Z,5.03
2018-12-01T14:57:52.254Z,5.30
2018-12-01T15:00:27.416Z,6.90
2018-12-01T15:03:08.901Z,4.90
2018-12-01T15:05:43.403Z,9.33
2018-12-01T15:08:18.684Z,9.43
2018-12-01T15:10:53.177Z,11.30
2018-12-01T15:13:27.672Z,9.00
2018-12-01T15:16:10.351Z,13.57
2018-12-01T15:18:45.551Z,10.03
2018-12-01T15:21:20.702Z,9.90
2018-12-01T15:23:55.101Z,10.93
2018-12-01T15:26:30.669Z,8.93
2018-12-01T15:29:06.481Z,13.00
2018-12-01T15:31:42.177Z,13.10
2018-12-01T15:34:16.704Z,7.23
2018-12-01T15:36:51.139Z,11.57
2018-12-01T15:39:28.389Z,13.03
2018-12-01T15:42:03.807Z,12.78
2018-12-01T15:44:38.974Z,11.07
2018-12-01T15:47:14.078Z,9.10
2018-12-01T15:49:48.481Z,13.97
2018-12-01T15:52:22.851Z,13.83
2018-12-01T15:54:57.529Z,14.57
2018-12-01T15:57:33.154Z,12.03
2018-12-01T16:00:13.441Z,13.27
2018-12-01T16:02:49.151Z,10.73
2018-12-01T16:05:25.269Z,13.80
2018-12-01T16:08:00.400Z,9.60
2018-12-01T16:10:35.006Z,11.47
2018-12-01T16:13:13.063Z,9.10
2018-12-01T16:15:50.163Z,13.13
2018-12-01T16:18:25.288Z,10.63
2018-12-01T16:21:01.167Z,13.30
2018-12-01T16:23:36.049Z,16.80
2018-12-01T16:26:10.730Z,10.77
2018-12-01T16:28:45.140Z,9.57
2018-12-01T16:31:20.902Z,12.67
2018-12-01T16:33:55.485Z,16.60
2018-12-01T16:36:29.999Z,12.67
2018-12-01T16:39:07.853Z,12.10
2018-12-01T16:41:43.594Z,15.13
2018-12-01T16:44:18.335Z,15.13
2018-12-01T16:46:53.684Z,13.97
2018-12-01T16:49:29.225Z,13.83
2018-12-01T16:52:03.895Z,13.07
2018-12-01T16:54:38.370Z,11.43
2018-12-01T16:57:13.478Z,16.63
2018-12-01T16:59:47.817Z,19.10
2018-12-01T17:02:26.237Z,15.40
2018-12-01T17:05:01.859Z,11.50
2018-12-01T17:07:37.806Z,11.97
2018-12-01T17:10:15.301Z,14.90
2018-12-01T17:12:50.885Z,10.43
2018-12-01T17:15:25.304Z,13.13
2018-12-01T17:18:00.705Z,10.50
2018-12-01T17:20:35.860Z,14.27
2018-12-01T17:23:14.532Z,8.97
2018-12-01T17:25:50.581Z,12.43
2018-12-01T17:28:26.071Z,12.97
2018-12-01T17:31:01.147Z,14.83
2018-12-01T17:33:35.853Z,12.93
2018-12-01T17:36:10.382Z,11.83
2018-12-01T17:38:44.801Z,8.50
2018-12-01T17:41:23.432Z,15.70
2018-12-01T17:44:03.679Z,9.97
2018-12-01T17:46:48.417Z,14.13
2018-12-01T17:49:23.169Z,9.93
2018-12-01T17:51:57.826Z,11.40
2018-12-01T17:54:32.934Z,13.47
2018-12-01T17:57:08.530Z,11.00
2018-12-01T17:59:42.813Z,12.77
2018-12-01T18:02:24.133Z,11.33
2018-12-01T18:04:59.659Z,15.30
2018-12-01T18:07:35.016Z,13.87
2018-12-01T18:10:12.426Z,15.83
2018-12-01T18:12:47.017Z,13.70
2018-12-01T18:15:22.242Z,14.20
2018-12-01T18:17:57.830Z,16.00
2018-12-01T18:20:33.577Z,17.23
2018-12-01T18:23:10.815Z,15.20
2018-12-01T18:25:47.158Z,16.27
2018-12-01T18:28:24.038Z,21.20
2018-12-01T18:30:59.086Z,15.77
2018-12-01T18:33:35.533Z,23.23
2018-12-01T18:36:11.976Z,16.30
2018-12-01T18:38:48.378Z,18.40
2018-12-01T18:41:23.894Z,16.93
2018-12-01T18:43:58.489Z,32.03
2018-12-01T18:46:50.756Z,15.67
2018-12-01T18:49:25.241Z,14.50
2018-12-01T18:51:59.696Z,17.97
2018-12-01T18:54:34.077Z,18.37
2018-12-01T18:57:09.681Z,15.27
2018-12-01T18:59:44.455Z,15.53
2018-12-01T19:02:24.817Z,15.17
2018-12-01T19:05:00.195Z,17.77
2018-12-01T19:07:43.746Z,18.80
2018-12-01T19:10:19.049Z,19.07
2018-12-01T19:12:53.677Z,15.13
2018-12-01T19:15:29.058Z,21.63
2018-12-01T19:18:04.481Z,16.77
2018-12-01T19:20:39.953Z,17.20
2018-12-01T19:23:16.237Z,16.20
2018-12-01T19:25:52.265Z,13.30
2018-12-01T19:28:27.328Z,14.10
2018-12-01T19:31:02.354Z,15.20
2018-12-01T19:33:36.914Z,18.33
2018-12-01T19:36:11.432Z,19.03
2018-12-01T19:38:46.059Z,17.03
2018-12-01T19:41:21.280Z,19.20
2018-12-01T19:43:56.094Z,22.17
2018-12-01T19:46:30.508Z,16.60
2018-12-01T19:49:06.579Z,21.57
2018-12-01T19:51:41.257Z,28.37
2018-12-01T19:54:15.586Z,24.17
2018-12-01T19:56:50.837Z,21.83
2018-12-01T19:59:25.293Z,19.60
2018-12-01T20:01:59.799Z,20.00
2018-12-01T20:04:36.047Z,23.20
2018-12-01T20:07:11.261Z,18.77
2018-12-01T20:09:45.741Z,27.70
2018-12-01T20:12:20.268Z,18.20
2018-12-01T20:14:54.626Z,22.77
2018-12-01T20:17:30.124Z,16.40
2018-12-01T20:20:05.839Z,18.63
2018-12-01T20:22:41.174Z,16.00
2018-12-01T20:25:15.850Z,13.97
2018-12-01T20:27:50.392Z,25.50
2018-12-01T20:30:26.172Z,15.60
2018-12-01T20:33:00.797Z,20.07
2018-12-01T20:35:45.211Z,17.90
2018-12-01T20:38:24.282Z,33.10
2018-12-01T20:40:59.699Z,22.90
2018-12-01T20:43:34.090Z,20.43
2018-12-01T20:46:09.085Z,23.90
2018-12-01T20:48:44.013Z,23.73
2018-12-01T20:51:18.487Z,18.77
2018-12-01T20:53:53.922Z,21.17
2018-12-01T20:56:32.456Z,20.60
2018-12-01T20:59:07.121Z,20.80
2018-12-01T21:01:41.554Z,17.90
2018-12-01T21:04:17.562Z,16.57
2018-12-01T21:06:53.889Z,15.73
2018-12-01T21:09:28.695Z,21.43
2018-12-01T21:12:03.218Z,22.47
2018-12-01T21:14:37.837Z,19.57
2018-12-01T21:17:13.979Z,19.73
2018-12-01T21:19:50.094Z,19.80
2018-12-01T21:22:26.034Z,19.80
2018-12-01T21:25:01.773Z,21.13
2018-12-01T21:27:36.402Z,26.87
2018-12-01T21:30:19.505Z,22.53
2018-12-01T21:32:59.470Z,19.90
2018-12-01T21:35:33.990Z,16.33
2018-12-01T21:38:11.247Z,19.80
2018-12-01T21:40:46.747Z,17.93
2018-12-01T21:43:21.353Z,21.83
2018-12-01T21:45:55.791Z,19.37
2018-12-01T21:48:31.639Z,19.70
2018-12-01T21:51:06.172Z,20.93
2018-12-01T21:53:40.709Z,17.87
2018-12-01T21:56:15.825Z,17.73
2018-12-01T21:58:50.451Z,19.33
2018-12-01T22:01:24.944Z,14.03
2018-12-01T22:04:04.892Z,18.80
2018-12-01T22:06:44.522Z,14.90
2018-12-01T22:09:18.942Z,17.10
2018-12-01T22:11:53.318Z,18.50
2018-12-01T22:14:27.977Z,17.93
2018-12-01T22:17:03.412Z,21.77
2018-12-01T22:19:38.770Z,21.47
2018-12-01T22:22:15.459Z,18.80
2018-12-01T22:24:48.834Z,18.80
2018-12-01T22:27:23.248Z,20.80
2018-12-01T22:29:57.791Z,19.30
2018-12-01T22:32:33.246Z,17.70
2018-12-01T22:35:10.357Z,18.67
2018-12-01T22:37:44.806Z,17.10
2018-12-01T22:40:29.708Z,21.33
2018-12-01T22:43:06.295Z,18.33
2018-12-01T22:45:41.654Z,16.83
2018-12-01T22:48:18.866Z,16.70
2018-12-01T22:50:53.757Z,17.33
2018-12-01T22:53:28.162Z,19.07
2018-12-01T22:56:03.150Z,17.83
2018-12-01T22:58:37.750Z,16.37
2018-12-01T23:01:12.243Z,18.97
2018-12-01T23:03:47.649Z,19.00
2018-12-01T23:06:22.068Z,16.23
2018-12-01T23:08:57.101Z,13.10
2018-12-01T23:11:31.544Z,15.33
2018-12-01T23:14:06.280Z,18.00
2018-12-01T23:16:41.651Z,17.17
2018-12-01T23:19:17.055Z,17.47
2018-12-01T23:21:52.327Z,15.47
2018-12-01T23:24:33.661Z,19.37
2018-12-01T23:27:08.250Z,17.13
2018-12-01T23:29:42.823Z,15.13
2018-12-01T23:32:17.998Z,23.70
2018-12-01T23:34:53.308Z,12.03
2018-12-01T23:37:26.840Z,16.60
2018-12-01T23:40:01.169Z,15.53
2018-12-01T23:42:36.109Z,17.53
2018-12-01T23:45:13.162Z,17.30
2018-12-01T23:47:48.392Z,16.70
2018-12-01T23:50:25.011Z,18.00
2018-12-01T23:53:01.891Z,15.70
2018-12-01T23:55:36.830Z,16.70
2018-12-01T23:58:11.366Z,15.47
